Time;durP1;ratioP1;P1;durP2;ratioP2;P2;SDS_P1;SDS_P2;PMS_P1;PMS_P2;Temp;Humidity;BMP_temperature;BMP_pressure;BME280_temperature;BME280_humidity;BME280_pressure;Samples;Min_cycle;Max_cycle;Signal;HPM_P1;HPM_P2
2023/05/09 00:00:12;;;;;;;12.10;7.97;;;;;;;;;;5013370;28;20032;-93
2023/05/09 00:02:38;;;;;;;18.38;9.05;;;;;;;;;;4997607;28;20029;-94
2023/05/09 00:05:04;;;;;;;12.82;8.60;;;;;;;;;;4997131;28;20542;-93
2023/05/09 00:07:30;;;;;;;14.98;7.70;;;;;;;;;;4997459;28;20025;-96
2023/05/09 00:09:55;;;;;;;14.02;9.18;;;;;;;;;;4996913;28;20040;-93
2023/05/09 00:12:21;;;;;;;12.57;8.18;;;;;;;;;;4996980;28;20468;-93
2023/05/09 00:14:50;;;;;;;16.02;10.07;;;;;;;;;;4997282;28;20030;-95
2023/05/09 00:17:15;;;;;;;15.88;9.25;;;;;;;;;;4997483;28;20109;-93
2023/05/09 00:19:42;;;;;;;19.52;10.48;;;;;;;;;;4997157;28;20459;-95
2023/05/09 00:22:08;;;;;;;23.67;10.73;;;;;;;;;;4996881;28;20472;-94
2023/05/09 00:24:33;;;;;;;16.90;9.10;;;;;;;;;;4997679;28;20053;-95
2023/05/09 00:26:58;;;;;;;21.73;10.82;;;;;;;;;;5013818;28;20379;-94
2023/05/09 00:29:24;;;;;;;22.08;10.75;;;;;;;;;;4996826;28;20034;-95
2023/05/09 00:31:49;;;;;;;20.10;9.45;;;;;;;;;;4997150;28;20547;-96
2023/05/09 00:34:14;;;;;;;17.67;9.23;;;;;;;;;;4996743;28;20384;-94
2023/05/09 00:36:40;;;;;;;19.20;9.15;;;;;;;;;;4996890;28;20079;-95
2023/05/09 00:39:05;;;;;;;15.30;9.07;;;;;;;;;;4997615;28;20053;-94
2023/05/09 00:41:31;;;;;;;26.77;9.93;;;;;;;;;;4995783;28;20022;-96
2023/05/09 00:43:56;;;;;;;20.90;9.27;;;;;;;;;;5014092;28;20030;-94
2023/05/09 00:46:22;;;;;;;25.38;9.60;;;;;;;;;;4996292;28;20388;-94
2023/05/09 00:48:47;;;;;;;17.98;9.07;;;;;;;;;;4996019;28;20021;-93
2023/05/09 00:51:12;;;;;;;26.50;10.60;;;;;;;;;;4996363;28;20018;-95
2023/05/09 00:53:37;;;;;;;27.33;10.55;;;;;;;;;;4996519;28;20022;-94
2023/05/09 00:56:03;;;;;;;19.67;9.57;;;;;;;;;;4995497;28;20052;-93
2023/05/09 00:58:28;;;;;;;17.33;8.95;;;;;;;;;;4996070;28;20018;-94
2023/05/09 01:00:54;;;;;;;23.92;9.30;;;;;;;;;;4996275;28;20523;-94
2023/05/09 01:03:19;;;;;;;22.13;9.90;;;;;;;;;;4996287;28;20113;-95
2023/05/09 01:05:53;;;;;;;19.35;8.95;;;;;;;;;;5013694;28;20371;-93
2023/05/09 01:08:37;;;;;;;16.60;8.25;;;;;;;;;;4996004;28;20502;-95
2023/05/09 01:11:09;;;;;;;17.95;7.82;;;;;;;;;;4995259;28;20084;-94
2023/05/09 01:13:41;;;;;;;25.58;9.75;;;;;;;;;;4997307;28;20059;-94
2023/05/09 01:16:09;;;;;;;21.80;9.48;;;;;;;;;;5013505;28;20025;-95
2023/05/09 01:18:45;;;;;;;22.27;8.65;;;;;;;;;;4995716;28;20129;-93
2023/05/09 01:21:14;;;;;;;16.98;8.10;;;;;;;;;;4995444;28;20053;-94
2023/05/09 01:23:43;;;;;;;17.40;8.77;;;;;;;;;;4995571;28;20041;-94
2023/05/09 01:26:27;;;;;;;18.48;9.00;;;;;;;;;;4995159;28;20022;-94
2023/05/09 01:29:10;;;;;;;27.80;9.75;;;;;;;;;;5013538;28;20032;-96
2023/05/09 01:31:38;;;;;;;20.50;9.38;;;;;;;;;;4995675;28;20030;-95
2023/05/09 01:34:04;;;;;;;17.48;8.38;;;;;;;;;;4995797;28;20048;-94
2023/05/09 01:36:31;;;;;;;15.95;7.78;;;;;;;;;;4995509;28;20108;-95
2023/05/09 01:38:58;;;;;;;14.70;7.35;;;;;;;;;;4995037;28;20087;-95
2023/05/09 01:41:24;;;;;;;12.90;6.32;;;;;;;;;;4996958;28;20083;-96
2023/05/09 01:43:50;;;;;;;11.90;6.40;;;;;;;;;;4995681;28;20022;-96
2023/05/09 01:46:17;;;;;;;13.30;6.40;;;;;;;;;;4996017;28;20025;-94
2023/05/09 01:48:43;;;;;;;12.63;6.43;;;;;;;;;;4995728;28;20128;-96
2023/05/09 01:51:09;;;;;;;14.80;6.68;;;;;;;;;;4996058;28;20049;-95
2023/05/09 01:53:35;;;;;;;12.15;5.80;;;;;;;;;;4995908;28;20105;-94
2023/05/09 01:56:01;;;;;;;9.90;4.95;;;;;;;;;;4995915;28;20068;-96
2023/05/09 01:58:27;;;;;;;9.30;5.20;;;;;;;;;;4995959;28;20033;-96
2023/05/09 02:00:53;;;;;;;8.50;4.68;;;;;;;;;;4996325;28;20018;-96
2023/05/09 02:03:18;;;;;;;8.98;5.03;;;;;;;;;;4996095;28;20013;-95
2023/05/09 02:05:45;;;;;;;10.00;4.40;;;;;;;;;;4995945;28;20467;-95
2023/05/09 02:08:12;;;;;;;9.75;4.28;;;;;;;;;;4996144;28;20014;-94
2023/05/09 02:10:38;;;;;;;6.13;4.03;;;;;;;;;;4995877;28;20125;-95
2023/05/09 02:13:03;;;;;;;8.88;4.03;;;;;;;;;;4996269;28;20523;-95
2023/05/09 02:15:29;;;;;;;7.10;3.85;;;;;;;;;;4995761;28;20076;-95
2023/05/09 02:17:54;;;;;;;8.25;4.68;;;;;;;;;;4996032;28;20018;-95
2023/05/09 02:20:20;;;;;;;6.25;3.97;;;;;;;;;;4998687;28;20032;-95
2023/05/09 02:22:45;;;;;;;4.57;3.92;;;;;;;;;;5000090;28;20443;-95
2023/05/09 02:25:13;;;;;;;11.43;4.75;;;;;;;;;;4999761;28;20033;-96
2023/05/09 02:27:39;;;;;;;9.85;3.72;;;;;;;;;;5000113;28;20071;-95
2023/05/09 02:30:07;;;;;;;6.65;4.40;;;;;;;;;;4999958;28;20495;-96
2023/05/09 02:32:34;;;;;;;9.02;4.88;;;;;;;;;;4999909;28;20018;-94
2023/05/09 02:35:00;;;;;;;12.25;4.85;;;;;;;;;;4999762;28;20208;-96
2023/05/09 02:37:26;;;;;;;13.65;5.13;;;;;;;;;;4999447;28;20076;-95
2023/05/09 02:39:51;;;;;;;8.50;4.93;;;;;;;;;;4999344;28;20042;-95
2023/05/09 02:42:21;;;;;;;5.85;4.10;;;;;;;;;;4999101;28;20108;-96
2023/05/09 02:44:46;;;;;;;8.07;4.78;;;;;;;;;;4999172;28;20361;-96
2023/05/09 02:47:11;;;;;;;13.80;5.60;;;;;;;;;;4999451;28;20032;-96
2023/05/09 02:49:37;;;;;;;12.43;5.63;;;;;;;;;;4999117;28;20034;-96
2023/05/09 02:52:02;;;;;;;11.60;5.75;;;;;;;;;;4998779;28;20383;-96
2023/05/09 02:54:27;;;;;;;11.80;5.35;;;;;;;;;;4999422;28;20044;-95
2023/05/09 02:56:52;;;;;;;14.85;6.55;;;;;;;;;;5017640;28;20029;-95
2023/05/09 02:59:19;;;;;;;15.90;6.70;;;;;;;;;;4999316;28;20014;-96
2023/05/09 03:01:44;;;;;;;12.73;6.57;;;;;;;;;;4999386;28;20022;-96
2023/05/09 03:04:09;;;;;;;10.98;6.32;;;;;;;;;;4999000;28;20033;-95
2023/05/09 03:06:35;;;;;;;11.02;6.25;;;;;;;;;;4999302;28;20101;-96
2023/05/09 03:09:00;;;;;;;12.23;6.78;;;;;;;;;;4998620;28;20045;-96
2023/05/09 03:11:26;;;;;;;10.02;6.10;;;;;;;;;;4998761;28;20022;-96
2023/05/09 03:13:51;;;;;;;11.80;6.38;;;;;;;;;;4998750;28;20018;-95
2023/05/09 03:16:17;;;;;;;11.38;6.72;;;;;;;;;;5016270;28;20026;-96
2023/05/09 03:18:42;;;;;;;14.38;8.18;;;;;;;;;;4998533;28;20038;-96
2023/05/09 03:21:07;;;;;;;11.73;7.00;;;;;;;;;;4999192;28;20026;-95
2023/05/09 03:23:33;;;;;;;16.27;8.18;;;;;;;;;;4998487;28;20498;-95
2023/05/09 03:25:58;;;;;;;13.00;8.05;;;;;;;;;;4998682;28;20057;-95
2023/05/09 03:28:23;;;;;;;14.60;8.00;;;;;;;;;;4998541;28;20022;-95
2023/05/09 03:30:49;;;;;;;17.30;9.18;;;;;;;;;;4996942;28;20283;-95
2023/05/09 03:33:14;;;;;;;14.70;8.80;;;;;;;;;;4998417;28;20021;-96
2023/05/09 03:35:39;;;;;;;17.48;9.73;;;;;;;;;;4998232;28;20480;-95
2023/05/09 03:38:04;;;;;;;16.83;8.25;;;;;;;;;;5015631;28;20049;-96
2023/05/09 03:40:30;;;;;;;14.45;7.35;;;;;;;;;;4998054;28;20029;-95
2023/05/09 03:42:55;;;;;;;16.05;8.57;;;;;;;;;;4998008;28;20496;-95
2023/05/09 03:45:20;;;;;;;16.98;8.88;;;;;;;;;;4998057;28;20029;-95
2023/05/09 03:47:46;;;;;;;18.58;8.93;;;;;;;;;;4999210;28;20014;-95
2023/05/09 03:50:11;;;;;;;24.75;9.63;;;;;;;;;;4998318;28;20034;-95
2023/05/09 03:52:36;;;;;;;28.73;9.68;;;;;;;;;;4997598;28;20029;-96
2023/05/09 03:55:02;;;;;;;18.75;10.02;;;;;;;;;;4997833;28;20112;-96
2023/05/09 03:57:27;;;;;;;17.50;9.02;;;;;;;;;;4997666;28;20468;-94
2023/05/09 03:59:52;;;;;;;19.90;8.35;;;;;;;;;;4997667;28;20064;-94
2023/05/09 04:02:18;;;;;;;14.48;7.90;;;;;;;;;;5015124;28;20387;-95
2023/05/09 04:04:43;;;;;;;19.35;9.02;;;;;;;;;;4997865;28;20017;-95
2023/05/09 04:07:09;;;;;;;15.00;9.02;;;;;;;;;;4997389;28;20544;-95
2023/05/09 04:09:34;;;;;;;17.33;9.10;;;;;;;;;;4997288;28;20480;-95
2023/05/09 04:11:59;;;;;;;15.52;8.25;;;;;;;;;;4997487;28;20096;-96
2023/05/09 04:14:24;;;;;;;18.38;9.02;;;;;;;;;;4997343;28;20029;-95
2023/05/09 04:16:50;;;;;;;13.43;8.00;;;;;;;;;;4997636;28;20088;-95
2023/05/09 04:19:15;;;;;;;16.10;8.20;;;;;;;;;;4997463;28;20104;-94
2023/05/09 04:21:40;;;;;;;17.10;8.10;;;;;;;;;;5014591;28;20029;-94
2023/05/09 04:24:06;;;;;;;23.13;8.95;;;;;;;;;;4997061;28;20264;-94
2023/05/09 04:26:31;;;;;;;19.38;8.60;;;;;;;;;;4996824;28;20480;-93
2023/05/09 04:28:56;;;;;;;14.70;8.15;;;;;;;;;;4996865;28;20053;-93
2023/05/09 04:31:22;;;;;;;17.45;8.30;;;;;;;;;;4996899;28;20018;-94
2023/05/09 04:33:47;;;;;;;17.60;8.80;;;;;;;;;;5014569;28;20013;-94
2023/05/09 04:36:12;;;;;;;21.95;9.48;;;;;;;;;;4997105;28;20032;-93
2023/05/09 04:38:37;;;;;;;23.48;10.05;;;;;;;;;;5013988;28;20017;-94
2023/05/09 04:41:03;;;;;;;22.20;8.77;;;;;;;;;;4996741;28;20392;-94
2023/05/09 04:43:28;;;;;;;23.45;9.18;;;;;;;;;;4996337;28;20101;-94
2023/05/09 04:45:54;;;;;;;16.00;7.68;;;;;;;;;;4996952;28;20018;-93
2023/05/09 04:48:19;;;;;;;26.38;9.63;;;;;;;;;;4996612;28;20076;-94
2023/05/09 04:50:47;;;;;;;22.17;10.23;;;;;;;;;;4996539;28;20448;-94
2023/05/09 04:53:12;;;;;;;34.35;10.40;;;;;;;;;;4996377;28;20109;-94
2023/05/09 04:55:37;;;;;;;23.67;10.00;;;;;;;;;;4996293;28;20112;-96
2023/05/09 04:58:02;;;;;;;24.20;10.02;;;;;;;;;;4996502;28;20297;-95
2023/05/09 05:00:28;;;;;;;22.75;8.68;;;;;;;;;;5014233;28;20495;-96
2023/05/09 05:02:54;;;;;;;19.00;8.45;;;;;;;;;;4996641;28;20129;-94
2023/05/09 05:05:19;;;;;;;24.02;8.75;;;;;;;;;;4996574;28;20113;-95
2023/05/09 05:07:44;;;;;;;17.27;9.10;;;;;;;;;;4996098;28;20343;-94
2023/05/09 05:10:10;;;;;;;17.13;7.82;;;;;;;;;;4995903;28;20029;-94
2023/05/09 05:12:35;;;;;;;18.42;7.85;;;;;;;;;;4996265;28;20060;-94
2023/05/09 05:15:00;;;;;;;22.77;8.02;;;;;;;;;;4996014;28;20018;-94
2023/05/09 05:17:28;;;;;;;18.95;7.72;;;;;;;;;;4996034;28;20022;-95
2023/05/09 05:19:53;;;;;;;20.60;8.20;;;;;;;;;;4996242;28;20472;-94
2023/05/09 05:22:18;;;;;;;29.07;8.23;;;;;;;;;;4995780;28;20331;-94
2023/05/09 05:24:43;;;;;;;16.52;7.93;;;;;;;;;;4996101;28;20267;-94
2023/05/09 05:27:09;;;;;;;28.60;9.20;;;;;;;;;;4995830;28;20476;-93
2023/05/09 05:29:34;;;;;;;23.80;8.23;;;;;;;;;;4995753;28;20650;-94
2023/05/09 05:31:59;;;;;;;19.20;8.40;;;;;;;;;;4996011;28;20022;-94
2023/05/09 05:34:24;;;;;;;24.87;9.03;;;;;;;;;;4995620;28;20370;-93
2023/05/09 05:36:50;;;;;;;16.33;7.88;;;;;;;;;;4995663;28;20302;-94
2023/05/09 05:39:15;;;;;;;17.58;8.23;;;;;;;;;;4995590;28;20486;-93
2023/05/09 05:41:40;;;;;;;15.85;7.20;;;;;;;;;;4995966;28;20080;-94
2023/05/09 05:44:06;;;;;;;20.60;7.60;;;;;;;;;;4996010;28;20028;-94
2023/05/09 05:46:31;;;;;;;21.13;8.65;;;;;;;;;;4994860;28;20022;-94
2023/05/09 05:48:56;;;;;;;23.73;8.63;;;;;;;;;;4995365;28;20022;-92
2023/05/09 05:51:21;;;;;;;23.27;8.68;;;;;;;;;;4995211;28;20109;-94
2023/05/09 05:53:46;;;;;;;24.30;9.13;;;;;;;;;;4994915;28;20404;-94
2023/05/09 05:56:12;;;;;;;29.40;8.57;;;;;;;;;;4995241;28;20688;-93
2023/05/09 05:58:37;;;;;;;27.03;8.90;;;;;;;;;;4995216;28;20010;-93
2023/05/09 06:01:02;;;;;;;26.23;8.77;;;;;;;;;;4995268;28;20255;-92
2023/05/09 06:03:27;;;;;;;24.33;8.52;;;;;;;;;;4995272;28;20406;-93
2023/05/09 06:05:53;;;;;;;16.85;7.90;;;;;;;;;;4995762;28;20029;-95
2023/05/09 06:08:18;;;;;;;15.73;7.05;;;;;;;;;;4995379;28;20471;-95
2023/05/09 06:10:43;;;;;;;20.13;8.10;;;;;;;;;;5012718;28;20037;-93
2023/05/09 06:13:09;;;;;;;20.25;7.88;;;;;;;;;;4995190;28;20256;-94
2023/05/09 06:15:34;;;;;;;19.73;7.55;;;;;;;;;;4994471;28;20113;-94
2023/05/09 06:17:59;;;;;;;18.00;7.38;;;;;;;;;;4989639;28;20174;-94
2023/05/09 06:20:24;;;;;;;13.10;6.80;;;;;;;;;;4993226;28;20083;-93
2023/05/09 06:22:50;;;;;;;16.57;7.10;;;;;;;;;;5001897;28;20018;-94
2023/05/09 06:25:15;;;;;;;15.63;6.63;;;;;;;;;;4974841;28;20267;-93
2023/05/09 06:27:40;;;;;;;12.85;6.50;;;;;;;;;;4988647;28;20104;-93
2023/05/09 06:30:06;;;;;;;13.23;6.18;;;;;;;;;;4981620;28;20481;-93
2023/05/09 06:32:31;;;;;;;10.63;5.35;;;;;;;;;;5006790;28;20025;-93
2023/05/09 06:34:56;;;;;;;12.87;5.90;;;;;;;;;;4987217;28;20018;-93
2023/05/09 06:37:22;;;;;;;11.97;5.43;;;;;;;;;;4975930;28;20255;-93
2023/05/09 06:39:47;;;;;;;11.40;5.07;;;;;;;;;;4982133;28;20264;-92
2023/05/09 06:42:12;;;;;;;13.52;5.88;;;;;;;;;;5009150;28;20382;-94
2023/05/09 06:44:37;;;;;;;11.50;5.07;;;;;;;;;;4992650;28;20068;-94
2023/05/09 06:47:03;;;;;;;10.80;4.50;;;;;;;;;;4992873;28;20252;-94
2023/05/09 06:49:28;;;;;;;12.27;5.15;;;;;;;;;;5008836;28;20033;-93
2023/05/09 06:51:53;;;;;;;11.68;4.97;;;;;;;;;;4985160;28;20022;-93
2023/05/09 06:54:18;;;;;;;14.43;5.50;;;;;;;;;;4984319;28;20476;-93
2023/05/09 06:56:44;;;;;;;21.03;6.40;;;;;;;;;;4993850;28;20264;-94
2023/05/09 06:59:12;;;;;;;21.33;6.25;;;;;;;;;;4996104;28;20267;-93
2023/05/09 07:01:37;;;;;;;18.92;7.00;;;;;;;;;;4974488;28;20026;-93
2023/05/09 07:04:03;;;;;;;19.17;6.60;;;;;;;;;;4974243;28;20065;-93
2023/05/09 07:06:28;;;;;;;18.00;6.95;;;;;;;;;;4994120;28;20027;-93
2023/05/09 07:08:53;;;;;;;13.50;6.63;;;;;;;;;;4978388;28;20023;-92
2023/05/09 07:11:18;;;;;;;17.77;6.67;;;;;;;;;;4990867;28;20128;-92
2023/05/09 07:13:44;;;;;;;14.18;5.43;;;;;;;;;;4980289;28;20343;-92
2023/05/09 07:16:09;;;;;;;13.63;5.43;;;;;;;;;;5002785;28;20508;-93
2023/05/09 07:18:34;;;;;;;11.23;5.03;;;;;;;;;;4996683;28;20089;-92
2023/05/09 07:20:59;;;;;;;9.35;3.88;;;;;;;;;;5013508;28;20089;-92
2023/05/09 07:23:25;;;;;;;6.90;3.70;;;;;;;;;;5013816;28;20029;-93
2023/05/09 07:25:54;;;;;;;9.40;3.25;;;;;;;;;;4996516;28;20032;-93
2023/05/09 07:28:20;;;;;;;6.43;2.75;;;;;;;;;;4999933;28;20022;-93
2023/05/09 07:30:45;;;;;;;6.27;2.80;;;;;;;;;;4978910;28;20061;-93
2023/05/09 07:33:10;;;;;;;7.13;3.03;;;;;;;;;;4987991;28;20385;-92
2023/05/09 07:35:36;;;;;;;6.10;2.92;;;;;;;;;;4993429;28;20483;-93
2023/05/09 07:38:01;;;;;;;4.00;2.72;;;;;;;;;;5006277;28;20006;-94
2023/05/09 07:40:26;;;;;;;4.63;2.78;;;;;;;;;;5015054;28;20361;-93
2023/05/09 07:42:53;;;;;;;5.80;3.03;;;;;;;;;;5006436;28;20025;-93
2023/05/09 07:45:19;;;;;;;6.65;2.90;;;;;;;;;;4977450;28;20257;-94
2023/05/09 07:47:44;;;;;;;9.95;3.63;;;;;;;;;;4998545;28;20017;-94
2023/05/09 07:50:09;;;;;;;8.30;3.38;;;;;;;;;;5007075;28;20038;-93
2023/05/09 07:52:35;;;;;;;10.80;3.28;;;;;;;;;;5014712;28;20037;-94
2023/05/09 07:55:00;;;;;;;9.00;3.95;;;;;;;;;;4996177;28;20018;-93
2023/05/09 07:57:25;;;;;;;9.75;3.80;;;;;;;;;;5013074;28;20133;-92
2023/05/09 07:59:50;;;;;;;8.27;4.32;;;;;;;;;;5012263;28;20026;-92
2023/05/09 08:02:16;;;;;;;10.63;4.60;;;;;;;;;;4996383;28;20112;-93
2023/05/09 08:04:41;;;;;;;8.87;3.87;;;;;;;;;;4996479;28;20362;-93
2023/05/09 08:07:07;;;;;;;10.68;4.15;;;;;;;;;;4996420;28;20306;-93
2023/05/09 08:09:33;;;;;;;8.35;3.88;;;;;;;;;;5011343;28;20387;-91
2023/05/09 08:11:58;;;;;;;8.63;4.30;;;;;;;;;;5013594;28;20100;-93
2023/05/09 08:14:23;;;;;;;13.60;4.35;;;;;;;;;;4996674;28;20022;-94
2023/05/09 08:16:48;;;;;;;10.00;3.77;;;;;;;;;;4994808;28;20476;-92
2023/05/09 08:19:14;;;;;;;5.43;2.57;;;;;;;;;;5012430;28;20263;-92
2023/05/09 08:21:39;;;;;;;7.07;2.55;;;;;;;;;;5013276;28;20270;-92
2023/05/09 08:24:06;;;;;;;6.95;2.53;;;;;;;;;;5014186;28;20372;-92
2023/05/09 08:26:32;;;;;;;5.72;2.92;;;;;;;;;;5013061;28;20021;-91
2023/05/09 08:28:57;;;;;;;5.10;2.20;;;;;;;;;;5014155;28;20020;-92
2023/05/09 08:31:23;;;;;;;4.57;2.20;;;;;;;;;;4995569;28;20132;-92
2023/05/09 08:33:48;;;;;;;6.43;2.60;;;;;;;;;;5010292;28;20017;-92
2023/05/09 08:36:13;;;;;;;3.10;1.90;;;;;;;;;;5012663;28;20030;-92
2023/05/09 08:38:39;;;;;;;7.93;2.70;;;;;;;;;;4995583;28;20076;-92
2023/05/09 08:41:04;;;;;;;4.93;2.17;;;;;;;;;;5015669;28;20263;-92
2023/05/09 08:43:32;;;;;;;7.18;2.20;;;;;;;;;;5014124;28;20030;-93
2023/05/09 08:46:00;;;;;;;10.30;2.33;;;;;;;;;;4996384;28;20037;-92
2023/05/09 08:48:27;;;;;;;9.70;1.98;;;;;;;;;;5012026;28;20030;-92
2023/05/09 08:50:53;;;;;;;4.03;1.90;;;;;;;;;;4995975;28;20488;-93
2023/05/09 08:53:20;;;;;;;7.45;2.28;;;;;;;;;;5013169;28;20017;-93
2023/05/09 08:55:45;;;;;;;7.22;2.53;;;;;;;;;;4997794;28;20026;-92
2023/05/09 08:58:12;;;;;;;5.15;1.98;;;;;;;;;;5013055;28;20028;-92
2023/05/09 09:00:38;;;;;;;3.83;1.90;;;;;;;;;;5014368;28;20030;-92
2023/05/09 09:03:05;;;;;;;4.45;1.95;;;;;;;;;;4997469;28;20017;-91
2023/05/09 09:05:32;;;;;;;7.15;1.98;;;;;;;;;;5013120;28;20508;-92
2023/05/09 09:07:57;;;;;;;3.50;1.77;;;;;;;;;;4993311;28;20017;-91
2023/05/09 09:10:26;;;;;;;4.55;1.95;;;;;;;;;;5013205;28;20109;-92
2023/05/09 09:12:53;;;;;;;4.57;1.92;;;;;;;;;;5012221;28;20157;-93
2023/05/09 09:15:18;;;;;;;4.43;1.83;;;;;;;;;;4994379;28;20084;-92
2023/05/09 09:17:46;;;;;;;5.63;1.80;;;;;;;;;;5013135;28;20021;-93
2023/05/09 09:20:13;;;;;;;7.25;1.42;;;;;;;;;;4994723;28;20037;-93
2023/05/09 09:22:41;;;;;;;1.75;0.82;;;;;;;;;;4995202;28;20037;-92
2023/05/09 09:25:06;;;;;;;2.42;1.00;;;;;;;;;;5009764;28;20026;-93
2023/05/09 09:27:32;;;;;;;1.45;0.70;;;;;;;;;;4995188;28;20092;-95
2023/05/09 09:30:07;;;;;;;1.48;0.80;;;;;;;;;;4995006;28;20431;-92
2023/05/09 09:32:33;;;;;;;1.70;0.60;;;;;;;;;;5013440;28;20017;-92
2023/05/09 09:35:08;;;;;;;1.40;0.65;;;;;;;;;;5012362;28;20120;-92
2023/05/09 09:37:34;;;;;;;1.05;0.50;;;;;;;;;;4993428;28;20113;-92
2023/05/09 09:40:00;;;;;;;1.77;0.47;;;;;;;;;;4993935;28;20116;-92
2023/05/09 09:42:25;;;;;;;2.25;0.50;;;;;;;;;;4994899;28;20021;-93
2023/05/09 09:45:17;;;;;;;2.83;0.55;;;;;;;;;;4994851;28;20064;-93
2023/05/09 09:47:43;;;;;;;0.75;0.40;;;;;;;;;;4991017;28;20049;-92
2023/05/09 09:50:12;;;;;;;0.88;0.47;;;;;;;;;;4994253;28;20084;-92
2023/05/09 09:53:03;;;;;;;1.08;0.60;;;;;;;;;;4993561;28;20033;-93
2023/05/09 09:55:28;;;;;;;1.55;0.80;;;;;;;;;;5007485;28;20045;-92
2023/05/09 09:57:54;;;;;;;2.17;0.60;;;;;;;;;;5013134;28;20040;-93
2023/05/09 10:00:29;;;;;;;0.35;0.35;;;;;;;;;;4994758;28;20080;-93
2023/05/09 10:02:55;;;;;;;1.73;0.70;;;;;;;;;;5012538;28;20056;-94
2023/05/09 10:05:24;;;;;;;1.00;0.60;;;;;;;;;;4993844;28;20075;-92
2023/05/09 10:07:52;;;;;;;0.77;0.77;;;;;;;;;;5012179;28;20029;-92
2023/05/09 10:10:17;;;;;;;2.67;1.20;;;;;;;;;;5012215;28;20499;-92
2023/05/09 10:12:45;;;;;;;2.35;0.65;;;;;;;;;;4986219;28;20022;-94
2023/05/09 10:15:13;;;;;;;0.68;0.30;;;;;;;;;;4962665;28;20057;-93
2023/05/09 10:17:39;;;;;;;0.82;0.50;;;;;;;;;;5012211;28;20068;-92
2023/05/09 10:20:05;;;;;;;1.05;0.52;;;;;;;;;;4994347;28;20105;-93
2023/05/09 10:22:35;;;;;;;0.50;0.40;;;;;;;;;;4994589;28;20022;-93
2023/05/09 10:25:03;;;;;;;2.05;1.05;;;;;;;;;;5012204;28;20026;-93
2023/05/09 10:27:31;;;;;;;0.43;0.40;;;;;;;;;;4994446;28;20021;-92
2023/05/09 10:30:01;;;;;;;0.45;0.45;;;;;;;;;;5012169;28;20030;-92
2023/05/09 10:32:30;;;;;;;2.33;0.55;;;;;;;;;;5009855;28;20024;-93
2023/05/09 10:35:00;;;;;;;6.32;0.70;;;;;;;;;;4975163;28;20014;-93
2023/05/09 10:37:26;;;;;;;2.08;0.60;;;;;;;;;;4974919;28;20381;-93
2023/05/09 10:39:53;;;;;;;1.75;0.40;;;;;;;;;;4992970;28;20019;-92
2023/05/09 10:42:18;;;;;;;0.80;0.40;;;;;;;;;;4978996;28;20033;-93
2023/05/09 10:44:45;;;;;;;1.75;0.82;;;;;;;;;;4979098;28;20014;-93
2023/05/09 10:47:12;;;;;;;0.63;0.30;;;;;;;;;;4996391;28;20022;-92
2023/05/09 10:49:37;;;;;;;1.50;0.50;;;;;;;;;;4998173;28;20081;-92
2023/05/09 10:52:03;;;;;;;1.73;0.60;;;;;;;;;;5016181;28;20037;-92
2023/05/09 10:54:32;;;;;;;2.35;0.60;;;;;;;;;;5016591;28;20480;-92
2023/05/09 10:56:57;;;;;;;0.77;0.65;;;;;;;;;;4998635;28;20026;-92
2023/05/09 10:59:34;;;;;;;0.88;0.50;;;;;;;;;;5015939;28;20022;-92
2023/05/09 11:01:59;;;;;;;0.73;0.40;;;;;;;;;;5014660;28;20030;-93
2023/05/09 11:04:25;;;;;;;1.25;0.60;;;;;;;;;;4998207;28;20018;-92
2023/05/09 11:06:51;;;;;;;0.63;0.43;;;;;;;;;;4997182;28;20427;-93
2023/05/09 11:09:28;;;;;;;0.80;0.50;;;;;;;;;;5013210;28;20535;-92
2023/05/09 11:11:54;;;;;;;0.60;0.30;;;;;;;;;;4998026;28;20121;-92
2023/05/09 11:14:34;;;;;;;2.10;0.70;;;;;;;;;;5015029;28;20053;-92
2023/05/09 11:17:00;;;;;;;1.15;0.63;;;;;;;;;;5012704;28;20753;-91
2023/05/09 11:19:35;;;;;;;0.60;0.60;;;;;;;;;;4993526;28;20026;-93
2023/05/09 11:22:03;;;;;;;1.42;0.90;;;;;;;;;;4999076;28;20022;-96
2023/05/09 11:24:31;;;;;;;0.77;0.57;;;;;;;;;;4997638;28;20029;-95
2023/05/09 11:26:56;;;;;;;0.82;0.52;;;;;;;;;;4997901;28;20018;-96
2023/05/09 11:29:26;;;;;;;1.80;0.50;;;;;;;;;;4998396;28;20375;-95
2023/05/09 11:32:04;;;;;;;0.85;0.47;;;;;;;;;;4998864;28;20022;-94
2023/05/09 11:34:29;;;;;;;0.95;0.43;;;;;;;;;;4979223;28;20065;-95
2023/05/09 11:37:05;;;;;;;0.98;0.70;;;;;;;;;;4989560;28;20463;-95
2023/05/09 11:39:31;;;;;;;1.10;0.63;;;;;;;;;;4992485;28;20033;-95
2023/05/09 11:41:56;;;;;;;1.98;0.60;;;;;;;;;;4978801;28;20022;-93
2023/05/09 11:44:23;;;;;;;0.60;0.47;;;;;;;;;;5020509;28;20017;-96
2023/05/09 11:46:48;;;;;;;2.67;0.60;;;;;;;;;;5010259;28;20167;-94
2023/05/09 11:49:14;;;;;;;0.73;0.52;;;;;;;;;;5017667;28;20069;-94
2023/05/09 11:51:40;;;;;;;1.50;0.50;;;;;;;;;;4999819;28;20030;-96
2023/05/09 11:54:06;;;;;;;2.60;0.60;;;;;;;;;;4998605;28;20113;-96
2023/05/09 11:56:33;;;;;;;3.35;0.43;;;;;;;;;;5003340;28;20072;-96
2023/05/09 11:58:58;;;;;;;0.75;0.40;;;;;;;;;;4998975;28;20010;-96
2023/05/09 12:01:23;;;;;;;1.50;0.32;;;;;;;;;;5001685;28;20017;-96
2023/05/09 12:03:49;;;;;;;0.40;0.30;;;;;;;;;;5074293;22;20772;-95
2023/05/09 12:06:18;;;;;;;2.45;0.50;;;;;;;;;;4996641;28;20035;-96
2023/05/09 12:08:46;;;;;;;1.67;0.40;;;;;;;;;;4977405;28;20465;-96
2023/05/09 12:11:12;;;;;;;1.15;0.47;;;;;;;;;;4978877;28;20038;-96
2023/05/09 12:13:45;;;;;;;1.75;0.60;;;;;;;;;;4978826;28;20018;-96
2023/05/09 12:16:11;;;;;;;3.45;0.47;;;;;;;;;;4978910;28;20014;-96
2023/05/09 12:18:36;;;;;;;1.73;0.52;;;;;;;;;;4979030;28;20030;-96
2023/05/09 12:21:02;;;;;;;2.00;1.02;;;;;;;;;;4978858;28;20019;-96
2023/05/09 12:23:27;;;;;;;0.73;0.30;;;;;;;;;;4978171;28;20029;-96
2023/05/09 12:25:54;;;;;;;0.50;0.20;;;;;;;;;;4979106;28;20014;-95
2023/05/09 12:28:22;;;;;;;0.80;0.30;;;;;;;;;;4979431;28;20022;-96
2023/05/09 12:30:48;;;;;;;1.83;0.28;;;;;;;;;;4977804;28;20038;-96
2023/05/09 12:33:14;;;;;;;1.25;0.40;;;;;;;;;;4980607;28;20023;-96
2023/05/09 12:35:44;;;;;;;1.42;0.40;;;;;;;;;;4978563;28;20031;-96
2023/05/09 12:38:13;;;;;;;3.92;0.38;;;;;;;;;;4979861;28;20025;-96
2023/05/09 12:40:38;;;;;;;2.28;0.17;;;;;;;;;;4978233;28;20064;-96
2023/05/09 12:43:04;;;;;;;0.68;0.38;;;;;;;;;;4979734;28;20030;-96
2023/05/09 12:45:31;;;;;;;3.47;0.30;;;;;;;;;;4979358;28;20041;-96
2023/05/09 12:47:57;;;;;;;2.05;0.30;;;;;;;;;;4978711;28;20025;-96
2023/05/09 12:50:30;;;;;;;0.52;0.25;;;;;;;;;;4978175;28;20038;-96
2023/05/09 12:52:55;;;;;;;0.55;0.20;;;;;;;;;;4980840;28;20113;-96
2023/05/09 12:55:20;;;;;;;1.33;0.20;;;;;;;;;;4981319;28;20050;-96
2023/05/09 12:57:56;;;;;;;0.10;0.10;;;;;;;;;;4978926;28;20022;-96
2023/05/09 13:00:22;;;;;;;7.00;0.40;;;;;;;;;;4980829;28;20081;-96
2023/05/09 13:02:49;;;;;;;1.05;0.30;;;;;;;;;;4979080;28;20022;-96
2023/05/09 13:05:18;;;;;;;0.80;0.32;;;;;;;;;;4979635;28;20038;-96
2023/05/09 13:07:44;;;;;;;3.25;0.68;;;;;;;;;;4979168;28;20272;-96
2023/05/09 13:10:10;;;;;;;0.90;0.38;;;;;;;;;;4979673;28;20038;-96
2023/05/09 13:12:37;;;;;;;0.73;0.30;;;;;;;;;;4979463;28;20384;-96
2023/05/09 13:15:03;;;;;;;3.80;0.40;;;;;;;;;;4978736;28;20481;-96
2023/05/09 13:17:28;;;;;;;1.10;0.38;;;;;;;;;;4979965;28;20165;-96
2023/05/09 13:19:53;;;;;;;0.82;0.40;;;;;;;;;;4979288;28;20021;-96
2023/05/09 13:22:18;;;;;;;1.27;0.40;;;;;;;;;;4980365;28;20085;-96
2023/05/09 13:24:44;;;;;;;1.00;0.50;;;;;;;;;;4978371;28;20072;-96
2023/05/09 13:27:09;;;;;;;1.10;0.50;;;;;;;;;;4981055;28;20088;-96
2023/05/09 13:29:35;;;;;;;2.17;0.50;;;;;;;;;;4986026;28;20022;-96
2023/05/09 13:32:02;;;;;;;2.42;0.40;;;;;;;;;;4978008;28;20034;-96
2023/05/09 13:34:27;;;;;;;1.00;0.70;;;;;;;;;;4976332;28;20018;-96
2023/05/09 13:36:52;;;;;;;1.38;0.43;;;;;;;;;;4977466;28;20088;-96
2023/05/09 13:39:18;;;;;;;1.45;0.28;;;;;;;;;;4976128;28;20106;-96
2023/05/09 13:41:43;;;;;;;0.50;0.30;;;;;;;;;;4977718;28;20026;-96
2023/05/09 13:44:08;;;;;;;1.20;0.40;;;;;;;;;;4976343;28;20380;-96
2023/05/09 13:46:34;;;;;;;3.00;0.95;;;;;;;;;;4976806;28;20036;-95
2023/05/09 13:48:59;;;;;;;1.00;0.32;;;;;;;;;;4975911;28;20108;-96
2023/05/09 13:51:24;;;;;;;2.03;0.40;;;;;;;;;;4977237;28;20074;-96
2023/05/09 13:53:50;;;;;;;2.22;0.45;;;;;;;;;;4977407;28;20026;-96
2023/05/09 13:56:15;;;;;;;2.88;0.52;;;;;;;;;;4977069;28;20022;-96
2023/05/09 13:58:40;;;;;;;2.50;0.57;;;;;;;;;;4977158;28;20473;-96
2023/05/09 14:01:06;;;;;;;1.75;0.50;;;;;;;;;;4976850;28;20077;-96
2023/05/09 14:03:31;;;;;;;1.23;0.20;;;;;;;;;;4978901;28;20032;-96
2023/05/09 14:05:56;;;;;;;2.05;0.43;;;;;;;;;;4978658;28;20026;-95
2023/05/09 14:08:22;;;;;;;1.07;0.40;;;;;;;;;;4976863;28;20023;-95
2023/05/09 14:10:47;;;;;;;3.72;0.30;;;;;;;;;;4976818;28;20323;-96
2023/05/09 14:13:14;;;;;;;2.80;0.30;;;;;;;;;;4977282;28;20029;-96
2023/05/09 14:15:39;;;;;;;1.88;0.55;;;;;;;;;;4976407;28;20034;-95
2023/05/09 14:18:05;;;;;;;0.70;0.43;;;;;;;;;;4976208;28;20026;-94
2023/05/09 14:20:30;;;;;;;0.68;0.32;;;;;;;;;;4977081;28;20393;-96
2023/05/09 14:22:59;;;;;;;1.15;0.55;;;;;;;;;;4976618;28;20029;-96
2023/05/09 14:25:24;;;;;;;2.90;0.82;;;;;;;;;;4976032;28;20481;-96
2023/05/09 14:27:50;;;;;;;1.00;0.38;;;;;;;;;;4977132;28;20026;-95
2023/05/09 14:30:15;;;;;;;1.33;0.40;;;;;;;;;;4976948;28;20053;-95